sensor_id;sensor_type;location;lat;lon;timestamp;P1;durP1;ratioP1;P2;durP2;ratioP2
72123;SDS011;63818;37.134;-8.548;2023-02-28T00:01:25;12.7;;;5.8;;
72123;SDS011;63818;37.134;-8.548;2023-02-28T00:06:12;12.8;;;5.6;;
72123;SDS011;63818;37.134;-8.548;2023-02-28T00:11:02;11.1;;;5.3;;
72123;SDS011;63818;37.134;-8.548;2023-02-28T00:15:51;10.7;;;5.4;;
72123;SDS011;63818;37.134;-8.548;2023-02-28T00:20:49;13.2;;;6.3;;
72123;SDS011;63818;37.134;-8.548;2023-02-28T00:25:35;16.1;;;6.9;;
72123;SDS011;63818;37.134;-8.548;2023-02-28T00:30:22;16.1;;;6.3;;
72123;SDS011;63818;37.134;-8.548;2023-02-28T00:35:11;17.7;;;6.3;;
72123;SDS011;63818;37.134;-8.548;2023-02-28T00:39:59;19.1;;;6.3;;
72123;SDS011;63818;37.134;-8.548;2023-02-28T00:44:45;17.0;;;6.6;;
72123;SDS011;63818;37.134;-8.548;2023-02-28T00:49:31;13.4;;;6.2;;
72123;SDS011;63818;37.134;-8.548;2023-02-28T00:54:20;12.3;;;5.6;;
72123;SDS011;63818;37.134;-8.548;2023-02-28T00:59:07;17.3;;;6.1;;
72123;SDS011;63818;37.134;-8.548;2023-02-28T01:03:54;16.5;;;6.4;;
72123;SDS011;63818;37.134;-8.548;2023-02-28T01:08:39;12.1;;;5.6;;
72123;SDS011;63818;37.134;-8.548;2023-02-28T01:13:26;12.7;;;5.5;;
72123;SDS011;63818;37.134;-8.548;2023-02-28T01:18:12;11.9;;;6.1;;
72123;SDS011;63818;37.134;-8.548;2023-02-28T01:22:57;15.5;;;6.1;;
72123;SDS011;63818;37.134;-8.548;2023-02-28T01:27:43;21.1;;;6.0;;
72123;SDS011;63818;37.134;-8.548;2023-02-28T01:32:29;16.8;;;6.1;;
72123;SDS011;63818;37.134;-8.548;2023-02-28T01:37:15;14.4;;;6.1;;
72123;SDS011;63818;37.134;-8.548;2023-02-28T01:42:00;14.1;;;6.1;;
72123;SDS011;63818;37.134;-8.548;2023-02-28T01:46:49;11.7;;;6.3;;
72123;SDS011;63818;37.134;-8.548;2023-02-28T01:51:37;11.4;;;6.3;;
72123;SDS011;63818;37.134;-8.548;2023-02-28T01:56:29;13.6;;;5.9;;
72123;SDS011;63818;37.134;-8.548;2023-02-28T02:01:21;15.7;;;6.2;;
72123;SDS011;63818;37.134;-8.548;2023-02-28T02:06:09;15.2;;;6.3;;
72123;SDS011;63818;37.134;-8.548;2023-02-28T02:10:55;18.4;;;6.3;;
72123;SDS011;63818;37.134;-8.548;2023-02-28T02:15:44;15.9;;;6.1;;
72123;SDS011;63818;37.134;-8.548;2023-02-28T02:20:42;11.7;;;5.7;;
72123;SDS011;63818;37.134;-8.548;2023-02-28T02:26:01;14.3;;;5.7;;
72123;SDS011;63818;37.134;-8.548;2023-02-28T02:31:16;15.4;;;5.8;;
72123;SDS011;63818;37.134;-8.548;2023-02-28T02:36:09;14.5;;;5.7;;
72123;SDS011;63818;37.134;-8.548;2023-02-28T02:41:04;13.1;;;6.0;;
72123;SDS011;63818;37.134;-8.548;2023-02-28T02:45:54;12.6;;;6.5;;
72123;SDS011;63818;37.134;-8.548;2023-02-28T02:50:44;12.2;;;6.4;;
72123;SDS011;63818;37.134;-8.548;2023-02-28T02:55:31;12.4;;;6.0;;
72123;SDS011;63818;37.134;-8.548;2023-02-28T03:00:26;12.1;;;5.8;;
72123;SDS011;63818;37.134;-8.548;2023-02-28T03:05:17;12.5;;;6.1;;
72123;SDS011;63818;37.134;-8.548;2023-02-28T03:10:27;12.6;;;6.3;;
72123;SDS011;63818;37.134;-8.548;2023-02-28T03:15:16;17.6;;;6.3;;
72123;SDS011;63818;37.134;-8.548;2023-02-28T03:20:13;19.6;;;6.1;;
72123;SDS011;63818;37.134;-8.548;2023-02-28T03:25:04;13.8;;;5.8;;
72123;SDS011;63818;37.134;-8.548;2023-02-28T03:29:59;12.7;;;5.8;;
72123;SDS011;63818;37.134;-8.548;2023-02-28T03:34:50;13.5;;;5.8;;
72123;SDS011;63818;37.134;-8.548;2023-02-28T03:39:44;14.6;;;6.3;;
72123;SDS011;63818;37.134;-8.548;2023-02-28T03:44:36;14.2;;;6.3;;
72123;SDS011;63818;37.134;-8.548;2023-02-28T03:49:27;17.1;;;6.8;;
72123;SDS011;63818;37.134;-8.548;2023-02-28T03:54:19;19.0;;;7.0;;
72123;SDS011;63818;37.134;-8.548;2023-02-28T03:59:09;15.1;;;5.9;;
72123;SDS011;63818;37.134;-8.548;2023-02-28T04:04:00;12.4;;;5.8;;
72123;SDS011;63818;37.134;-8.548;2023-02-28T04:08:46;13.7;;;5.8;;
72123;SDS011;63818;37.134;-8.548;2023-02-28T04:13:32;13.6;;;5.8;;
72123;SDS011;63818;37.134;-8.548;2023-02-28T04:18:21;13.4;;;5.8;;
72123;SDS011;63818;37.134;-8.548;2023-02-28T04:23:07;12.9;;;5.7;;
72123;SDS011;63818;37.134;-8.548;2023-02-28T04:27:56;11.2;;;5.6;;
72123;SDS011;63818;37.134;-8.548;2023-02-28T04:32:42;12.6;;;5.6;;
72123;SDS011;63818;37.134;-8.548;2023-02-28T04:37:28;12.8;;;5.8;;
72123;SDS011;63818;37.134;-8.548;2023-02-28T04:42:14;11.8;;;6.3;;
72123;SDS011;63818;37.134;-8.548;2023-02-28T04:47:00;11.5;;;6.3;;
72123;SDS011;63818;37.134;-8.548;2023-02-28T04:51:49;14.5;;;6.4;;
72123;SDS011;63818;37.134;-8.548;2023-02-28T04:56:34;13.8;;;6.2;;
72123;SDS011;63818;37.134;-8.548;2023-02-28T05:01:26;12.2;;;5.7;;
72123;SDS011;63818;37.134;-8.548;2023-02-28T05:06:16;16.0;;;6.1;;
72123;SDS011;63818;37.134;-8.548;2023-02-28T05:11:03;14.7;;;6.0;;
72123;SDS011;63818;37.134;-8.548;2023-02-28T05:15:49;14.1;;;6.0;;
72123;SDS011;63818;37.134;-8.548;2023-02-28T05:20:37;15.2;;;6.1;;
72123;SDS011;63818;37.134;-8.548;2023-02-28T05:25:25;13.6;;;6.0;;
72123;SDS011;63818;37.134;-8.548;2023-02-28T05:30:14;12.2;;;6.1;;
72123;SDS011;63818;37.134;-8.548;2023-02-28T05:35:00;10.9;;;6.0;;
72123;SDS011;63818;37.134;-8.548;2023-02-28T05:39:49;14.5;;;6.1;;
72123;SDS011;63818;37.134;-8.548;2023-02-28T05:44:35;15.1;;;6.0;;
72123;SDS011;63818;37.134;-8.548;2023-02-28T05:49:23;11.5;;;5.8;;
72123;SDS011;63818;37.134;-8.548;2023-02-28T05:54:09;11.1;;;5.6;;
72123;SDS011;63818;37.134;-8.548;2023-02-28T05:58:55;14.5;;;5.9;;
72123;SDS011;63818;37.134;-8.548;2023-02-28T06:03:41;13.4;;;5.9;;
72123;SDS011;63818;37.134;-8.548;2023-02-28T06:08:28;10.8;;;5.4;;
72123;SDS011;63818;37.134;-8.548;2023-02-28T06:13:14;10.4;;;5.5;;
72123;SDS011;63818;37.134;-8.548;2023-02-28T06:18:02;9.4;;;5.6;;
72123;SDS011;63818;37.134;-8.548;2023-02-28T06:22:51;12.0;;;6.0;;
72123;SDS011;63818;37.134;-8.548;2023-02-28T06:27:37;12.8;;;6.2;;
72123;SDS011;63818;37.134;-8.548;2023-02-28T06:32:23;11.1;;;5.8;;
72123;SDS011;63818;37.134;-8.548;2023-02-28T06:37:11;11.1;;;5.7;;
72123;SDS011;63818;37.134;-8.548;2023-02-28T06:41:57;12.8;;;6.2;;
72123;SDS011;63818;37.134;-8.548;2023-02-28T06:46:44;14.4;;;6.8;;
72123;SDS011;63818;37.134;-8.548;2023-02-28T06:51:30;13.7;;;6.6;;
72123;SDS011;63818;37.134;-8.548;2023-02-28T06:56:17;12.1;;;6.4;;
72123;SDS011;63818;37.134;-8.548;2023-02-28T07:01:04;13.0;;;6.0;;
72123;SDS011;63818;37.134;-8.548;2023-02-28T07:05:50;11.7;;;5.8;;
72123;SDS011;63818;37.134;-8.548;2023-02-28T07:10:38;10.3;;;6.0;;
72123;SDS011;63818;37.134;-8.548;2023-02-28T07:15:25;12.8;;;6.2;;
72123;SDS011;63818;37.134;-8.548;2023-02-28T07:20:12;12.8;;;6.2;;
72123;SDS011;63818;37.134;-8.548;2023-02-28T07:25:00;14.5;;;6.3;;
72123;SDS011;63818;37.134;-8.548;2023-02-28T07:29:46;16.9;;;6.5;;
72123;SDS011;63818;37.134;-8.548;2023-02-28T07:34:33;15.7;;;6.8;;
72123;SDS011;63818;37.134;-8.548;2023-02-28T07:39:19;13.4;;;6.7;;
72123;SDS011;63818;37.134;-8.548;2023-02-28T07:44:05;14.6;;;6.3;;
72123;SDS011;63818;37.134;-8.548;2023-02-28T07:48:55;14.1;;;6.3;;
72123;SDS011;63818;37.134;-8.548;2023-02-28T07:53:43;13.0;;;6.6;;
72123;SDS011;63818;37.134;-8.548;2023-02-28T07:58:29;12.6;;;6.7;;
72123;SDS011;63818;37.134;-8.548;2023-02-28T08:03:15;11.7;;;6.9;;
72123;SDS011;63818;37.134;-8.548;2023-02-28T08:08:02;15.7;;;7.1;;
72123;SDS011;63818;37.134;-8.548;2023-02-28T08:12:48;15.2;;;6.9;;
72123;SDS011;63818;37.134;-8.548;2023-02-28T08:17:34;11.8;;;6.9;;
72123;SDS011;63818;37.134;-8.548;2023-02-28T08:22:23;11.9;;;7.1;;
72123;SDS011;63818;37.134;-8.548;2023-02-28T08:27:08;14.2;;;7.1;;
72123;SDS011;63818;37.134;-8.548;2023-02-28T08:31:55;16.9;;;6.9;;
72123;SDS011;63818;37.134;-8.548;2023-02-28T08:36:42;19.0;;;7.3;;
72123;SDS011;63818;37.134;-8.548;2023-02-28T08:41:28;15.8;;;7.5;;
72123;SDS011;63818;37.134;-8.548;2023-02-28T08:46:24;11.0;;;6.8;;
72123;SDS011;63818;37.134;-8.548;2023-02-28T08:51:15;16.6;;;6.8;;
72123;SDS011;63818;37.134;-8.548;2023-02-28T08:56:03;21.5;;;8.1;;
72123;SDS011;63818;37.134;-8.548;2023-02-28T09:00:51;16.7;;;8.4;;
72123;SDS011;63818;37.134;-8.548;2023-02-28T09:05:37;12.7;;;8.3;;
72123;SDS011;63818;37.134;-8.548;2023-02-28T09:10:23;12.7;;;8.2;;
72123;SDS011;63818;37.134;-8.548;2023-02-28T09:15:17;18.4;;;7.3;;
72123;SDS011;63818;37.134;-8.548;2023-02-28T09:20:04;22.0;;;7.5;;
72123;SDS011;63818;37.134;-8.548;2023-02-28T09:24:50;17.9;;;7.6;;
72123;SDS011;63818;37.134;-8.548;2023-02-28T09:29:36;13.9;;;7.1;;
72123;SDS011;63818;37.134;-8.548;2023-02-28T09:34:22;11.9;;;7.0;;
72123;SDS011;63818;37.134;-8.548;2023-02-28T09:39:08;12.5;;;7.0;;
72123;SDS011;63818;37.134;-8.548;2023-02-28T09:44:05;17.1;;;6.8;;
72123;SDS011;63818;37.134;-8.548;2023-02-28T09:49:07;18.5;;;6.8;;
72123;SDS011;63818;37.134;-8.548;2023-02-28T09:53:58;16.0;;;6.5;;
72123;SDS011;63818;37.134;-8.548;2023-02-28T09:58:47;16.2;;;6.2;;
72123;SDS011;63818;37.134;-8.548;2023-02-28T10:03:44;12.7;;;5.8;;
72123;SDS011;63818;37.134;-8.548;2023-02-28T10:08:39;9.9;;;6.0;;
72123;SDS011;63818;37.134;-8.548;2023-02-28T10:13:36;9.8;;;6.3;;
72123;SDS011;63818;37.134;-8.548;2023-02-28T10:18:29;10.2;;;5.9;;
72123;SDS011;63818;37.134;-8.548;2023-02-28T10:23:21;15.5;;;6.0;;
72123;SDS011;63818;37.134;-8.548;2023-02-28T10:28:12;15.4;;;6.1;;
72123;SDS011;63818;37.134;-8.548;2023-02-28T10:33:00;10.5;;;5.8;;
72123;SDS011;63818;37.134;-8.548;2023-02-28T10:37:47;9.9;;;5.8;;
72123;SDS011;63818;37.134;-8.548;2023-02-28T10:42:34;11.4;;;5.7;;
72123;SDS011;63818;37.134;-8.548;2023-02-28T10:47:21;12.4;;;5.6;;
72123;SDS011;63818;37.134;-8.548;2023-02-28T10:52:09;12.2;;;5.7;;
72123;SDS011;63818;37.134;-8.548;2023-02-28T10:57:07;11.6;;;5.5;;
72123;SDS011;63818;37.134;-8.548;2023-02-28T11:01:54;10.8;;;5.2;;
72123;SDS011;63818;37.134;-8.548;2023-02-28T11:06:43;11.7;;;5.3;;
72123;SDS011;63818;37.134;-8.548;2023-02-28T11:11:40;13.1;;;5.7;;
72123;SDS011;63818;37.134;-8.548;2023-02-28T11:16:33;13.0;;;6.0;;
72123;SDS011;63818;37.134;-8.548;2023-02-28T11:21:26;11.0;;;5.8;;
72123;SDS011;63818;37.134;-8.548;2023-02-28T11:26:13;10.5;;;5.6;;
72123;SDS011;63818;37.134;-8.548;2023-02-28T11:31:04;12.7;;;5.9;;
72123;SDS011;63818;37.134;-8.548;2023-02-28T11:35:58;12.1;;;6.0;;
72123;SDS011;63818;37.134;-8.548;2023-02-28T11:40:52;13.2;;;5.9;;
72123;SDS011;63818;37.134;-8.548;2023-02-28T11:45:58;12.7;;;6.1;;
72123;SDS011;63818;37.134;-8.548;2023-02-28T11:50:57;11.4;;;5.9;;
72123;SDS011;63818;37.134;-8.548;2023-02-28T11:55:49;12.7;;;5.7;;
72123;SDS011;63818;37.134;-8.548;2023-02-28T12:00:44;13.2;;;5.7;;
72123;SDS011;63818;37.134;-8.548;2023-02-28T12:05:49;12.2;;;5.6;;
72123;SDS011;63818;37.134;-8.548;2023-02-28T12:10:49;10.6;;;5.4;;
72123;SDS011;63818;37.134;-8.548;2023-02-28T12:15:50;16.5;;;5.6;;
72123;SDS011;63818;37.134;-8.548;2023-02-28T12:20:52;17.7;;;5.7;;
72123;SDS011;63818;37.134;-8.548;2023-02-28T12:25:52;13.2;;;5.7;;
72123;SDS011;63818;37.134;-8.548;2023-02-28T12:30:49;15.3;;;5.8;;
72123;SDS011;63818;37.134;-8.548;2023-02-28T12:35:40;13.9;;;5.5;;
72123;SDS011;63818;37.134;-8.548;2023-02-28T12:40:40;12.9;;;5.5;;
72123;SDS011;63818;37.134;-8.548;2023-02-28T12:45:36;13.7;;;5.8;;
72123;SDS011;63818;37.134;-8.548;2023-02-28T12:50:30;10.7;;;6.2;;
72123;SDS011;63818;37.134;-8.548;2023-02-28T12:55:19;9.8;;;6.2;;
72123;SDS011;63818;37.134;-8.548;2023-02-28T13:00:11;11.8;;;6.2;;
72123;SDS011;63818;37.134;-8.548;2023-02-28T13:05:06;11.7;;;6.0;;
72123;SDS011;63818;37.134;-8.548;2023-02-28T13:09:58;10.2;;;5.6;;
72123;SDS011;63818;37.134;-8.548;2023-02-28T13:14:46;11.8;;;5.8;;
72123;SDS011;63818;37.134;-8.548;2023-02-28T13:19:33;13.8;;;5.6;;
72123;SDS011;63818;37.134;-8.548;2023-02-28T13:24:40;15.7;;;6.0;;
72123;SDS011;63818;37.134;-8.548;2023-02-28T13:29:30;15.3;;;6.4;;
72123;SDS011;63818;37.134;-8.548;2023-02-28T13:34:16;12.1;;;5.8;;
72123;SDS011;63818;37.134;-8.548;2023-02-28T13:39:03;10.7;;;5.8;;
72123;SDS011;63818;37.134;-8.548;2023-02-28T13:44:05;10.3;;;5.8;;
72123;SDS011;63818;37.134;-8.548;2023-02-28T13:48:52;11.1;;;5.7;;
72123;SDS011;63818;37.134;-8.548;2023-02-28T13:54:01;12.0;;;6.1;;
72123;SDS011;63818;37.134;-8.548;2023-02-28T13:58:55;10.2;;;5.8;;
72123;SDS011;63818;37.134;-8.548;2023-02-28T14:03:55;9.1;;;5.5;;
72123;SDS011;63818;37.134;-8.548;2023-02-28T14:08:50;8.9;;;5.4;;
72123;SDS011;63818;37.134;-8.548;2023-02-28T14:13:41;8.9;;;5.4;;
72123;SDS011;63818;37.134;-8.548;2023-02-28T14:18:30;9.7;;;5.6;;
72123;SDS011;63818;37.134;-8.548;2023-02-28T14:23:20;10.5;;;5.5;;
72123;SDS011;63818;37.134;-8.548;2023-02-28T14:28:17;9.4;;;5.3;;
72123;SDS011;63818;37.134;-8.548;2023-02-28T14:33:16;9.7;;;5.7;;
72123;SDS011;63818;37.134;-8.548;2023-02-28T14:38:13;11.1;;;6.2;;
72123;SDS011;63818;37.134;-8.548;2023-02-28T14:43:05;11.8;;;5.8;;
72123;SDS011;63818;37.134;-8.548;2023-02-28T14:47:57;12.3;;;5.5;;
72123;SDS011;63818;37.134;-8.548;2023-02-28T14:52:47;12.1;;;5.4;;
72123;SDS011;63818;37.134;-8.548;2023-02-28T14:57:41;12.4;;;5.4;;
72123;SDS011;63818;37.134;-8.548;2023-02-28T15:02:44;11.0;;;5.1;;
72123;SDS011;63818;37.134;-8.548;2023-02-28T15:07:40;13.7;;;5.2;;
72123;SDS011;63818;37.134;-8.548;2023-02-28T15:12:27;13.7;;;5.3;;
72123;SDS011;63818;37.134;-8.548;2023-02-28T15:17:19;9.7;;;4.9;;
72123;SDS011;63818;37.134;-8.548;2023-02-28T15:22:11;11.2;;;5.1;;
72123;SDS011;63818;37.134;-8.548;2023-02-28T15:27:02;10.7;;;5.1;;
72123;SDS011;63818;37.134;-8.548;2023-02-28T15:31:55;10.6;;;4.9;;
72123;SDS011;63818;37.134;-8.548;2023-02-28T15:36:43;11.2;;;5.1;;
72123;SDS011;63818;37.134;-8.548;2023-02-28T15:41:29;9.3;;;5.0;;
72123;SDS011;63818;37.134;-8.548;2023-02-28T15:46:20;10.0;;;5.2;;
72123;SDS011;63818;37.134;-8.548;2023-02-28T15:51:07;11.2;;;5.3;;
72123;SDS011;63818;37.134;-8.548;2023-02-28T15:56:02;9.7;;;5.0;;
72123;SDS011;63818;37.134;-8.548;2023-02-28T16:01:01;10.6;;;5.1;;
72123;SDS011;63818;37.134;-8.548;2023-02-28T16:05:54;10.7;;;5.2;;
72123;SDS011;63818;37.134;-8.548;2023-02-28T16:11:03;9.7;;;5.0;;
72123;SDS011;63818;37.134;-8.548;2023-02-28T16:15:49;12.4;;;5.3;;
72123;SDS011;63818;37.134;-8.548;2023-02-28T16:20:35;12.0;;;5.4;;
72123;SDS011;63818;37.134;-8.548;2023-02-28T16:25:26;8.5;;;5.0;;
72123;SDS011;63818;37.134;-8.548;2023-02-28T16:30:20;11.0;;;5.2;;
72123;SDS011;63818;37.134;-8.548;2023-02-28T16:35:11;12.5;;;5.3;;
72123;SDS011;63818;37.134;-8.548;2023-02-28T16:39:57;12.2;;;5.3;;
72123;SDS011;63818;37.134;-8.548;2023-02-28T16:44:44;11.9;;;5.4;;
72123;SDS011;63818;37.134;-8.548;2023-02-28T16:49:33;11.6;;;5.4;;
72123;SDS011;63818;37.134;-8.548;2023-02-28T16:54:18;12.5;;;5.5;;
72123;SDS011;63818;37.134;-8.548;2023-02-28T16:59:07;9.5;;;5.3;;
72123;SDS011;63818;37.134;-8.548;2023-02-28T17:03:54;9.7;;;5.3;;
72123;SDS011;63818;37.134;-8.548;2023-02-28T17:08:42;11.2;;;5.4;;
72123;SDS011;63818;37.134;-8.548;2023-02-28T17:13:28;11.3;;;5.7;;
72123;SDS011;63818;37.134;-8.548;2023-02-28T17:18:17;12.7;;;5.8;;
72123;SDS011;63818;37.134;-8.548;2023-02-28T17:23:11;13.0;;;5.4;;
72123;SDS011;63818;37.134;-8.548;2023-02-28T17:27:59;12.3;;;5.2;;
72123;SDS011;63818;37.134;-8.548;2023-02-28T17:32:46;10.9;;;5.4;;
72123;SDS011;63818;37.134;-8.548;2023-02-28T17:37:32;10.7;;;5.9;;
72123;SDS011;63818;37.134;-8.548;2023-02-28T17:42:20;10.7;;;5.9;;
72123;SDS011;63818;37.134;-8.548;2023-02-28T17:47:06;12.8;;;5.6;;
72123;SDS011;63818;37.134;-8.548;2023-02-28T17:51:56;13.9;;;5.5;;
72123;SDS011;63818;37.134;-8.548;2023-02-28T17:56:42;11.3;;;6.1;;
72123;SDS011;63818;37.134;-8.548;2023-02-28T18:01:30;11.9;;;6.3;;
72123;SDS011;63818;37.134;-8.548;2023-02-28T18:06:22;13.3;;;5.9;;
72123;SDS011;63818;37.134;-8.548;2023-02-28T18:11:10;11.3;;;5.8;;
72123;SDS011;63818;37.134;-8.548;2023-02-28T18:15:57;8.7;;;5.7;;
72123;SDS011;63818;37.134;-8.548;2023-02-28T18:20:49;9.0;;;5.8;;
72123;SDS011;63818;37.134;-8.548;2023-02-28T18:25:38;10.1;;;5.7;;
72123;SDS011;63818;37.134;-8.548;2023-02-28T18:30:24;11.4;;;5.9;;
72123;SDS011;63818;37.134;-8.548;2023-02-28T18:35:13;11.9;;;5.9;;
72123;SDS011;63818;37.134;-8.548;2023-02-28T18:39:59;13.7;;;5.8;;
72123;SDS011;63818;37.134;-8.548;2023-02-28T18:44:45;14.1;;;5.9;;
72123;SDS011;63818;37.134;-8.548;2023-02-28T18:49:31;15.8;;;5.9;;
72123;SDS011;63818;37.134;-8.548;2023-02-28T18:54:23;14.9;;;6.2;;
72123;SDS011;63818;37.134;-8.548;2023-02-28T18:59:11;11.4;;;6.4;;
72123;SDS011;63818;37.134;-8.548;2023-02-28T19:03:57;11.1;;;6.3;;
72123;SDS011;63818;37.134;-8.548;2023-02-28T19:08:44;11.4;;;6.2;;
72123;SDS011;63818;37.134;-8.548;2023-02-28T19:13:30;15.1;;;6.1;;
72123;SDS011;63818;37.134;-8.548;2023-02-28T19:18:17;16.7;;;6.1;;
72123;SDS011;63818;37.134;-8.548;2023-02-28T19:23:05;14.1;;;6.2;;
72123;SDS011;63818;37.134;-8.548;2023-02-28T19:27:52;14.2;;;6.0;;
72123;SDS011;63818;37.134;-8.548;2023-02-28T19:32:40;15.7;;;6.5;;
72123;SDS011;63818;37.134;-8.548;2023-02-28T19:37:31;14.2;;;7.1;;
72123;SDS011;63818;37.134;-8.548;2023-02-28T19:42:17;18.3;;;7.2;;
72123;SDS011;63818;37.134;-8.548;2023-02-28T19:47:08;19.2;;;7.3;;
72123;SDS011;63818;37.134;-8.548;2023-02-28T19:51:54;17.4;;;7.1;;
72123;SDS011;63818;37.134;-8.548;2023-02-28T19:56:40;18.2;;;6.9;;
72123;SDS011;63818;37.134;-8.548;2023-02-28T20:01:26;14.9;;;7.1;;
72123;SDS011;63818;37.134;-8.548;2023-02-28T20:06:14;15.4;;;7.3;;
72123;SDS011;63818;37.134;-8.548;2023-02-28T20:11:04;16.6;;;7.1;;
72123;SDS011;63818;37.134;-8.548;2023-02-28T20:15:51;16.2;;;7.4;;
72123;SDS011;63818;37.134;-8.548;2023-02-28T20:20:37;16.4;;;8.4;;
72123;SDS011;63818;37.134;-8.548;2023-02-28T20:25:23;17.9;;;8.9;;
72123;SDS011;63818;37.134;-8.548;2023-02-28T20:30:10;20.9;;;8.5;;
72123;SDS011;63818;37.134;-8.548;2023-02-28T20:34:56;18.7;;;7.8;;
72123;SDS011;63818;37.134;-8.548;2023-02-28T20:39:42;18.2;;;7.6;;
72123;SDS011;63818;37.134;-8.548;2023-02-28T20:44:28;20.5;;;8.5;;
72123;SDS011;63818;37.134;-8.548;2023-02-28T20:49:14;16.8;;;7.9;;
72123;SDS011;63818;37.134;-8.548;2023-02-28T20:54:00;13.2;;;6.5;;
72123;SDS011;63818;37.134;-8.548;2023-02-28T20:58:47;14.2;;;6.8;;
72123;SDS011;63818;37.134;-8.548;2023-02-28T21:03:35;15.5;;;7.6;;
72123;SDS011;63818;37.134;-8.548;2023-02-28T21:08:23;19.8;;;8.4;;
72123;SDS011;63818;37.134;-8.548;2023-02-28T21:13:10;21.5;;;8.3;;
72123;SDS011;63818;37.134;-8.548;2023-02-28T21:17:55;16.8;;;7.5;;
72123;SDS011;63818;37.134;-8.548;2023-02-28T21:22:41;14.7;;;7.4;;
72123;SDS011;63818;37.134;-8.548;2023-02-28T21:27:27;14.6;;;7.6;;
72123;SDS011;63818;37.134;-8.548;2023-02-28T21:32:13;15.5;;;7.5;;
72123;SDS011;63818;37.134;-8.548;2023-02-28T21:36:59;14.1;;;6.5;;
72123;SDS011;63818;37.134;-8.548;2023-02-28T21:41:45;10.7;;;5.9;;
72123;SDS011;63818;37.134;-8.548;2023-02-28T21:46:32;12.0;;;6.1;;
72123;SDS011;63818;37.134;-8.548;2023-02-28T21:51:19;14.7;;;6.6;;
72123;SDS011;63818;37.134;-8.548;2023-02-28T21:56:07;17.0;;;6.8;;
72123;SDS011;63818;37.134;-8.548;2023-02-28T22:00:56;16.3;;;6.2;;
72123;SDS011;63818;37.134;-8.548;2023-02-28T22:05:53;17.1;;;6.4;;
72123;SDS011;63818;37.134;-8.548;2023-02-28T22:10:42;15.8;;;6.6;;
72123;SDS011;63818;37.134;-8.548;2023-02-28T22:15:34;13.3;;;6.4;;
72123;SDS011;63818;37.134;-8.548;2023-02-28T22:20:20;14.0;;;6.3;;
72123;SDS011;63818;37.134;-8.548;2023-02-28T22:25:07;12.9;;;6.3;;
72123;SDS011;63818;37.134;-8.548;2023-02-28T22:29:55;15.8;;;6.2;;
72123;SDS011;63818;37.134;-8.548;2023-02-28T22:34:41;16.6;;;6.2;;
72123;SDS011;63818;37.134;-8.548;2023-02-28T22:39:27;12.5;;;6.2;;
72123;SDS011;63818;37.134;-8.548;2023-02-28T22:44:13;14.0;;;6.4;;
72123;SDS011;63818;37.134;-8.548;2023-02-28T22:48:59;15.6;;;6.8;;
72123;SDS011;63818;37.134;-8.548;2023-02-28T22:53:46;16.3;;;6.7;;
72123;SDS011;63818;37.134;-8.548;2023-02-28T22:58:32;16.9;;;6.9;;
72123;SDS011;63818;37.134;-8.548;2023-02-28T23:03:21;13.7;;;7.2;;
72123;SDS011;63818;37.134;-8.548;2023-02-28T23:08:08;15.4;;;7.2;;
72123;SDS011;63818;37.134;-8.548;2023-02-28T23:12:54;15.3;;;7.3;;
72123;SDS011;63818;37.134;-8.548;2023-02-28T23:17:41;12.3;;;6.7;;
72123;SDS011;63818;37.134;-8.548;2023-02-28T23:22:27;12.2;;;6.8;;
72123;SDS011;63818;37.134;-8.548;2023-02-28T23:27:13;14.0;;;6.9;;
72123;SDS011;63818;37.134;-8.548;2023-02-28T23:31:59;15.4;;;6.2;;
72123;SDS011;63818;37.134;-8.548;2023-02-28T23:36:48;17.5;;;6.3;;
72123;SDS011;63818;37.134;-8.548;2023-02-28T23:41:34;14.5;;;6.4;;
72123;SDS011;63818;37.134;-8.548;2023-02-28T23:46:23;11.4;;;6.0;;
72123;SDS011;63818;37.134;-8.548;2023-02-28T23:51:10;12.1;;;5.9;;
72123;SDS011;63818;37.134;-8.548;2023-02-28T23:55:57;11.8;;;5.9;;
